Pireps
You are here: Olympic Virtual Pireps

Flight OLY941

  • Submitted By: Stavros Sarikas
  • Departure Airport: Dimokritos Airport (LGAL)
  • Arrival Airport: Eleftherios Venizelos International Airport (LGAV)
  • Aircraft: A300-600 (SX-BEL)
  • Flight Time: 00.48
  • Date Submitted: 30/11/2017
  • Route: LMO UG33 NEVRA
  • Status: Accepted
Flight Details
Gross Revenue:
(165 load / € 55.00 per unit
€ 9, 075.00
Fuel Cost:
(1831 fuel used @ 0.19 / unit)
€ 347.89

Additional Log Information:

View Log

Aircraft Used in flight is Airbus A320 British Airways G-EUUU
17:35 Boarding
17:35 Navigation Lights ON at 40 Feet
17:35 Beacon Lights ON at 40 Feet
17:35 Brakes are On
17:35 Engine 2 Started
17:36 Engine 1 Started
17:37 Brakes are Released
17:37 Pushing back
17:38 Flaps 3 Selected at 40ft and 0kts
17:39 Taxi Lights ON at 40 Feet
17:40 Landing Lights ON at 40 AGL
17:40 Strobe Lights ON at 40 Feet
17:41 You Took off @ 139 Knots and Flaps at Position 3 With a heading of 253 Degrees
Departure Weather LGAL 301520Z 17020G30KT 9000 FEW014 BKN020 17/14 Q1013
Departure Coordinates 40.8541722776411/ 25.9457313538377
Takeoff Weight=59667KG Fuel Weight=4823KG
17:42 Landing Gear Up @ 144 Knots and 110 Feet
17:42 Taxi Lights OFF at 190 Feet
17:43 Flaps 2 Selected at 1620ft and 145kts
17:43 Flaps 0 Selected at 1810ft and 185kts
17:44 Below 10000 feet you are not allowed to go over 250 knots
17:45 Above FL100 you need to switch of the landing lights
17:45 Landing Lights OFF at 10360 AGL
17:51 TOC Reached
18:10 Landing Lights ON at 9830 AGL
18:16 Flaps 1 Selected at 2950ft and 203kts
18:17 Flaps 3 Selected at 2230ft and 182kts
18:17 Landing Gear Down @ 180 Knots and 2130 Feet
18:17 Flaps 4 Selected at 2010ft and 167kts
18:17 Taxi Lights ON at 1970 Feet
18:17 Flaps 5 Selected at 1930ft and 162kts
18:20 You Landed @ 130 Knots with -400 Vertical Speed With a heading of 217 and with 2.2992 G Force
Arrival Weather: LGAV 301550Z 20018KT 9999 FEW025 18/12 Q1016 NOSIG
Arrival Coordinates 37.9441121543901/ 23.9402346244364
Landing Weight=58092KG Fuel Weight=3248KG
18:20 Airplane Bounced
18:20 Airplane Bounced
18:20 Taxiing to gate
18:20 Paused
18:21 Landing Lights OFF at 320 AGL
18:21 Strobe Lights OFF at 320 Feet
18:21 Flaps 0 Selected at 320ft and 17kts
18:23 Brakes are On
18:23 Unpaused
18:23 Engine 1 Stopped
18:23 Engine 2 Stopped
Pirep logged with OA Virtual Tracking 1.0.2.6

Route Map